createdAt,value
2018-12-15T00:01:55.261Z,-2.70
2018-12-15T00:04:23.226Z,-2.70
2018-12-15T00:06:51.545Z,-2.70
2018-12-15T00:09:19.304Z,-2.70
2018-12-15T00:11:47.066Z,-2.70
2018-12-15T00:14:14.811Z,-2.70
2018-12-15T00:16:42.510Z,-2.70
2018-12-15T00:19:10.205Z,-2.70
2018-12-15T00:21:37.858Z,-2.70
2018-12-15T00:24:05.919Z,-2.70
2018-12-15T00:26:33.602Z,-2.70
2018-12-15T00:29:01.206Z,-2.70
2018-12-15T00:31:29.746Z,-2.70
2018-12-15T00:33:57.443Z,-2.70
2018-12-15T00:36:25.405Z,-2.70
2018-12-15T00:38:53.126Z,-2.70
2018-12-15T00:41:20.920Z,-2.70
2018-12-15T00:43:51.676Z,-2.70
2018-12-15T00:46:19.379Z,-2.70
2018-12-15T00:48:46.991Z,-2.70
2018-12-15T00:51:16.657Z,-2.80
2018-12-15T00:53:44.227Z,-2.80
2018-12-15T00:56:11.962Z,-2.80
2018-12-15T00:58:39.684Z,-2.80
2018-12-15T01:01:07.392Z,-2.80
2018-12-15T01:03:35.417Z,-2.80
2018-12-15T01:06:03.099Z,-2.80
2018-12-15T01:08:30.727Z,-2.80
2018-12-15T01:10:58.357Z,-2.70
2018-12-15T01:13:26.018Z,-2.70
2018-12-15T01:15:53.745Z,-2.70
2018-12-15T01:18:21.517Z,-2.70
2018-12-15T01:20:49.219Z,-2.70
2018-12-15T01:23:16.828Z,-2.70
2018-12-15T01:25:47.689Z,-2.70
2018-12-15T01:28:15.760Z,-2.70
2018-12-15T01:30:43.433Z,-2.70
2018-12-15T01:33:11.017Z,-2.70
2018-12-15T01:35:39.351Z,-2.70
2018-12-15T01:38:06.911Z,-2.70
2018-12-15T01:40:34.481Z,-2.70
2018-12-15T01:43:02.080Z,-2.70
2018-12-15T01:45:30.043Z,-2.70
2018-12-15T01:47:57.763Z,-2.70
2018-12-15T01:50:25.397Z,-2.70
2018-12-15T01:52:53.038Z,-2.70
2018-12-15T01:55:20.599Z,-2.70
2018-12-15T01:57:48.117Z,-2.70
2018-12-15T02:00:15.834Z,-2.70
2018-12-15T02:02:43.440Z,-2.60
2018-12-15T02:05:11.065Z,-2.70
2018-12-15T02:07:38.684Z,-2.70
2018-12-15T02:10:06.503Z,-2.60
2018-12-15T02:12:34.048Z,-2.70
2018-12-15T02:15:01.666Z,-2.60
2018-12-15T02:17:33.553Z,-2.60
2018-12-15T02:19:59.254Z,-2.60
2018-12-15T02:22:26.885Z,-2.60
2018-12-15T02:24:54.587Z,-2.70
2018-12-15T02:27:22.207Z,-2.70
2018-12-15T02:29:49.792Z,-2.70
2018-12-15T02:32:17.409Z,-2.70
2018-12-15T02:34:45.050Z,-2.70
2018-12-15T02:37:12.659Z,-2.70
2018-12-15T02:39:40.265Z,-2.70
2018-12-15T02:42:07.981Z,-2.70
2018-12-15T02:44:35.687Z,-2.70
2018-12-15T02:47:03.274Z,-2.70
2018-12-15T02:49:30.887Z,-2.70
2018-12-15T02:51:58.577Z,-2.70
2018-12-15T02:54:26.255Z,-2.70
2018-12-15T02:56:54.029Z,-2.70
2018-12-15T02:59:21.717Z,-2.70
2018-12-15T03:01:49.272Z,-2.70
2018-12-15T03:04:16.871Z,-2.70
2018-12-15T03:06:44.789Z,-2.70
2018-12-15T03:09:12.634Z,-2.70
2018-12-15T03:11:50.950Z,-2.70
2018-12-15T03:14:18.674Z,-2.70
2018-12-15T03:16:58.170Z,-2.70
2018-12-15T03:19:25.899Z,-2.80
2018-12-15T03:21:53.551Z,-2.70
2018-12-15T03:24:21.250Z,-2.70
2018-12-15T03:26:48.907Z,-2.70
2018-12-15T03:29:16.464Z,-2.80
2018-12-15T03:31:44.053Z,-2.80
2018-12-15T03:34:11.595Z,-2.80
2018-12-15T03:36:39.287Z,-2.80
2018-12-15T03:39:06.999Z,-2.80
2018-12-15T03:41:34.682Z,-2.80
2018-12-15T03:44:02.444Z,-2.80
2018-12-15T03:46:30.042Z,-2.80
2018-12-15T03:48:57.606Z,-2.80
2018-12-15T03:51:25.217Z,-2.80
2018-12-15T03:53:55.913Z,-2.80
2018-12-15T03:56:23.491Z,-2.80
2018-12-15T03:58:51.189Z,-2.80
2018-12-15T04:01:18.844Z,-2.80
2018-12-15T04:03:46.383Z,-2.80
2018-12-15T04:06:13.969Z,-2.80
2018-12-15T04:08:41.666Z,-2.80
2018-12-15T04:11:09.388Z,-2.80
2018-12-15T04:13:37.042Z,-2.80
2018-12-15T04:16:04.666Z,-2.80
2018-12-15T04:18:32.413Z,-2.80
2018-12-15T04:21:00.261Z,-2.80
2018-12-15T04:23:28.010Z,-2.80
2018-12-15T04:25:55.778Z,-2.80
2018-12-15T04:28:23.519Z,-2.80
2018-12-15T04:30:51.263Z,-2.80
2018-12-15T04:33:19.104Z,-2.80
2018-12-15T04:35:46.853Z,-2.80
2018-12-15T04:38:14.620Z,-2.80
2018-12-15T04:40:42.623Z,-2.80
2018-12-15T04:43:10.320Z,-2.90
2018-12-15T04:45:38.050Z,-2.90
2018-12-15T04:48:11.204Z,-2.90
2018-12-15T04:50:35.550Z,-2.90
2018-12-15T04:53:03.262Z,-2.90
2018-12-15T04:55:30.997Z,-2.90
2018-12-15T04:57:58.519Z,-2.90
2018-12-15T05:00:26.304Z,-2.90
2018-12-15T05:02:53.935Z,-2.90
2018-12-15T05:05:22.609Z,-2.90
2018-12-15T05:07:50.142Z,-2.90
2018-12-15T05:10:18.618Z,-2.90
2018-12-15T05:12:46.913Z,-2.90
2018-12-15T05:15:14.545Z,-2.90
2018-12-15T05:17:42.388Z,-2.90
2018-12-15T05:20:10.123Z,-2.90
2018-12-15T05:22:37.743Z,-2.90
2018-12-15T05:25:05.541Z,-2.90
2018-12-15T05:27:33.637Z,-2.90
2018-12-15T05:30:01.576Z,-3.00
2018-12-15T05:32:29.218Z,-3.00
2018-12-15T05:34:56.845Z,-2.90
2018-12-15T05:37:24.483Z,-2.90
2018-12-15T05:39:52.043Z,-3.00
2018-12-15T05:42:19.703Z,-3.00
2018-12-15T05:44:47.260Z,-3.00
2018-12-15T05:47:14.877Z,-3.00
2018-12-15T05:49:42.492Z,-3.00
2018-12-15T05:52:10.779Z,-3.00
2018-12-15T05:54:38.499Z,-3.00
2018-12-15T05:57:06.082Z,-3.00
2018-12-15T05:59:33.754Z,-3.00
2018-12-15T06:02:02.852Z,-3.10
2018-12-15T06:04:30.410Z,-3.10
2018-12-15T06:06:58.085Z,-3.10
2018-12-15T06:09:25.679Z,-3.10
2018-12-15T06:11:53.242Z,-3.10
2018-12-15T06:14:20.916Z,-3.10
2018-12-15T06:16:48.570Z,-3.10
2018-12-15T06:19:16.085Z,-3.10
2018-12-15T06:21:43.782Z,-3.10
2018-12-15T06:24:11.371Z,-3.10
2018-12-15T06:26:39.296Z,-3.10
2018-12-15T06:29:20.875Z,-3.10
2018-12-15T06:31:48.572Z,-3.10
2018-12-15T06:34:16.307Z,-3.20
2018-12-15T06:36:43.843Z,-3.20
2018-12-15T06:39:11.407Z,-3.20
2018-12-15T06:41:39.041Z,-3.20
2018-12-15T06:44:07.614Z,-3.20
2018-12-15T06:46:35.258Z,-3.20
2018-12-15T06:49:02.988Z,-3.20
2018-12-15T06:51:30.640Z,-3.20
2018-12-15T06:53:58.452Z,-3.20
2018-12-15T06:56:26.067Z,-3.20
2018-12-15T06:58:53.766Z,-3.20
2018-12-15T07:01:21.399Z,-3.20
2018-12-15T07:03:49.089Z,-3.20
2018-12-15T07:06:16.693Z,-3.20
2018-12-15T07:08:44.569Z,-3.20
2018-12-15T07:11:12.287Z,-3.20
2018-12-15T07:13:40.996Z,-3.20
2018-12-15T07:16:08.596Z,-3.20
2018-12-15T07:18:36.321Z,-3.20
2018-12-15T07:21:03.998Z,-3.20
2018-12-15T07:23:31.657Z,-3.20
2018-12-15T07:25:59.245Z,-3.20
2018-12-15T07:28:26.958Z,-3.20
2018-12-15T07:30:54.624Z,-3.20
2018-12-15T07:33:23.388Z,-3.20
2018-12-15T07:35:51.078Z,-3.10
2018-12-15T07:38:18.776Z,-3.10
2018-12-15T07:40:46.498Z,-3.10
2018-12-15T07:43:14.834Z,-3.10
2018-12-15T07:45:42.525Z,-3.10
2018-12-15T07:48:10.232Z,-3.10
2018-12-15T07:50:37.842Z,-3.10
2018-12-15T07:53:05.574Z,-3.10
2018-12-15T07:55:33.258Z,-3.00
2018-12-15T07:58:02.701Z,-3.00
2018-12-15T08:00:30.199Z,-3.00
2018-12-15T08:02:57.913Z,-3.00
2018-12-15T08:05:26.274Z,-3.00
2018-12-15T08:07:54.051Z,-3.00
2018-12-15T08:10:23.342Z,-3.00
2018-12-15T08:13:02.585Z,-3.00
2018-12-15T08:15:31.148Z,-2.90
2018-12-15T08:17:58.683Z,-2.90
2018-12-15T08:20:26.257Z,-2.90
2018-12-15T08:22:53.954Z,-2.90
2018-12-15T08:25:21.604Z,-2.90
2018-12-15T08:27:49.482Z,-2.90
2018-12-15T08:30:17.616Z,-2.80
2018-12-15T08:32:45.595Z,-2.80
2018-12-15T08:35:13.395Z,-2.80
2018-12-15T08:37:41.075Z,-2.70
2018-12-15T08:40:08.707Z,-2.70
2018-12-15T08:42:36.398Z,-2.70
2018-12-15T08:45:04.595Z,-2.60
2018-12-15T08:47:32.319Z,-2.60
2018-12-15T08:50:00.237Z,-2.60
2018-12-15T08:52:28.339Z,-2.60
2018-12-15T08:54:56.447Z,-2.60
2018-12-15T08:57:24.776Z,-2.50
2018-12-15T08:59:52.574Z,-2.50
2018-12-15T09:02:20.195Z,-2.50
2018-12-15T09:04:47.824Z,-2.40
2018-12-15T09:07:16.603Z,-2.40
2018-12-15T09:09:44.907Z,-2.40
2018-12-15T09:12:13.505Z,-2.40
2018-12-15T09:14:41.869Z,-2.40
2018-12-15T09:17:09.563Z,-2.40
2018-12-15T09:19:37.240Z,-2.40
2018-12-15T09:22:11.568Z,-2.40
2018-12-15T09:24:35.008Z,-2.30
2018-12-15T09:27:02.612Z,-2.30
2018-12-15T09:29:30.212Z,-2.30
2018-12-15T09:31:58.212Z,-2.30
2018-12-15T09:34:25.964Z,-2.30
2018-12-15T09:36:54.094Z,-2.30
2018-12-15T09:39:21.885Z,-2.30
2018-12-15T09:41:50.377Z,-2.40
2018-12-15T09:44:19.915Z,-2.30
2018-12-15T09:46:47.603Z,-2.30
2018-12-15T09:49:17.954Z,-2.30
2018-12-15T09:51:45.580Z,-2.30
2018-12-15T09:54:14.171Z,-2.30
2018-12-15T09:56:42.939Z,-2.30
2018-12-15T09:59:10.563Z,-2.30
2018-12-15T10:01:38.055Z,-2.30
2018-12-15T10:04:05.629Z,-2.20
2018-12-15T10:06:33.327Z,-2.20
2018-12-15T10:09:00.968Z,-2.10
2018-12-15T10:11:28.509Z,-2.10
2018-12-15T10:13:56.086Z,-2.10
2018-12-15T10:16:24.742Z,-2.10
2018-12-15T10:18:52.381Z,-2.10
2018-12-15T10:21:20.300Z,-2.10
2018-12-15T10:23:47.979Z,-2.00
2018-12-15T10:26:15.694Z,-2.00
2018-12-15T10:28:43.600Z,-2.00
2018-12-15T10:31:16.979Z,-2.00
2018-12-15T10:33:44.642Z,-2.00
2018-12-15T10:36:12.233Z,-2.00
2018-12-15T10:38:39.966Z,-2.00
2018-12-15T10:41:11.617Z,-2.00
2018-12-15T10:43:40.144Z,-2.00
2018-12-15T10:46:07.775Z,-2.00
2018-12-15T10:48:36.297Z,-1.90
2018-12-15T10:51:04.125Z,-1.90
2018-12-15T10:53:31.973Z,-1.80
2018-12-15T10:55:59.573Z,-1.70
2018-12-15T10:58:27.162Z,-1.60
2018-12-15T11:00:56.687Z,-1.50
2018-12-15T11:03:24.443Z,-1.40
2018-12-15T11:05:53.074Z,-1.30
2018-12-15T11:08:22.801Z,-1.10
2018-12-15T11:10:50.455Z,-1.00
2018-12-15T11:13:17.975Z,-0.90
2018-12-15T11:15:46.077Z,-0.80
2018-12-15T11:18:14.689Z,-0.90
2018-12-15T11:20:42.190Z,-0.90
2018-12-15T11:23:10.205Z,-0.90
2018-12-15T11:25:37.817Z,-1.00
2018-12-15T11:28:05.502Z,-1.10
2018-12-15T11:30:33.180Z,-1.10
2018-12-15T11:35:53.729Z,-1.20
2018-12-15T11:38:21.472Z,-1.20
2018-12-15T11:40:49.223Z,-1.20
2018-12-15T11:43:16.986Z,-1.10
2018-12-15T11:45:44.741Z,-1.10
2018-12-15T11:48:13.329Z,-1.10
2018-12-15T11:50:41.232Z,-1.10
2018-12-15T11:53:08.911Z,-1.10
2018-12-15T11:55:36.605Z,-1.10
2018-12-15T11:58:04.387Z,-1.10
2018-12-15T12:00:32.143Z,-1.00
2018-12-15T12:02:59.626Z,-1.00
2018-12-15T12:05:27.320Z,-1.00
2018-12-15T12:07:54.981Z,-1.00
2018-12-15T12:10:22.595Z,-1.00
2018-12-15T12:12:50.320Z,-1.00
2018-12-15T12:15:18.003Z,-1.00
2018-12-15T12:17:46.378Z,-0.90
2018-12-15T12:20:14.502Z,-0.90
2018-12-15T12:22:43.073Z,-0.90
2018-12-15T12:27:57.917Z,-0.80
2018-12-15T12:30:26.017Z,-0.80
2018-12-15T12:32:54.995Z,-0.90
2018-12-15T12:35:23.043Z,-0.90
2018-12-15T12:37:51.721Z,-0.90
2018-12-15T12:40:19.954Z,-0.90
2018-12-15T12:42:48.130Z,-0.90
2018-12-15T12:50:42.473Z,-1.00
2018-12-15T12:53:11.047Z,-1.10
2018-12-15T12:55:40.330Z,-1.10
2018-12-15T12:58:09.448Z,-1.10
2018-12-15T13:00:37.627Z,-1.10
2018-12-15T13:03:05.783Z,-1.10
2018-12-15T13:05:34.010Z,-1.10
2018-12-15T13:08:02.905Z,-1.00
2018-12-15T13:10:30.951Z,-1.00
2018-12-15T13:12:58.882Z,-0.90
2018-12-15T13:15:27.106Z,-0.90
2018-12-15T13:17:55.179Z,-0.90
2018-12-15T13:20:23.176Z,-0.90
2018-12-15T13:22:51.432Z,-1.00
2018-12-15T13:25:19.605Z,-1.00
2018-12-15T13:27:47.515Z,-1.10
2018-12-15T13:30:17.597Z,-1.10
2018-12-15T13:32:45.254Z,-1.20
2018-12-15T13:35:13.356Z,-1.20
2018-12-15T13:37:41.562Z,-1.30
2018-12-15T13:40:10.672Z,-1.40
2018-12-15T13:42:38.574Z,-1.40
2018-12-15T13:47:53.154Z,-1.50
2018-12-15T13:50:21.288Z,-1.50
2018-12-15T13:52:48.956Z,-1.50
2018-12-15T13:55:17.500Z,-1.50
2018-12-15T13:57:45.724Z,-1.60
2018-12-15T14:00:14.210Z,-1.60
2018-12-15T14:02:42.534Z,-1.70
2018-12-15T14:05:10.438Z,-1.70
2018-12-15T14:07:38.544Z,-1.70
2018-12-15T14:10:06.874Z,-1.70
2018-12-15T14:12:41.074Z,-1.80
2018-12-15T14:15:09.234Z,-1.80
2018-12-15T14:17:37.381Z,-1.80
2018-12-15T14:20:05.801Z,-1.80
2018-12-15T14:22:35.869Z,-1.80
2018-12-15T14:25:04.970Z,-1.90
2018-12-15T14:27:33.011Z,-1.90
2018-12-15T14:30:01.261Z,-1.90
2018-12-15T14:32:32.988Z,-1.90
2018-12-15T14:35:01.660Z,-1.90
2018-12-15T14:37:29.806Z,-2.00
2018-12-15T14:39:58.050Z,-2.00
2018-12-15T14:42:26.396Z,-2.00
2018-12-15T14:44:54.778Z,-2.00
2018-12-15T14:47:22.786Z,-2.00
2018-12-15T14:49:50.947Z,-2.00
2018-12-15T14:52:19.344Z,-2.00
2018-12-15T14:54:48.504Z,-2.00
2018-12-15T14:57:18.879Z,-2.00
2018-12-15T14:59:47.078Z,-2.10
2018-12-15T15:02:15.106Z,-2.10
2018-12-15T15:04:43.382Z,-2.10
2018-12-15T15:07:11.264Z,-2.10
2018-12-15T15:09:39.261Z,-2.10
2018-12-15T15:12:07.407Z,-2.20
2018-12-15T15:14:35.705Z,-2.20
2018-12-15T15:17:03.751Z,-2.20
2018-12-15T15:19:32.372Z,-2.20
2018-12-15T15:22:00.824Z,-2.20
2018-12-15T15:24:29.011Z,-2.30
2018-12-15T15:26:56.846Z,-2.30
2018-12-15T15:29:25.345Z,-2.30
2018-12-15T15:31:53.473Z,-2.30
2018-12-15T15:34:21.439Z,-2.30
2018-12-15T15:36:49.421Z,-2.30
2018-12-15T15:39:17.607Z,-2.30
2018-12-15T15:41:46.138Z,-2.30
2018-12-15T15:44:14.495Z,-2.30
2018-12-15T15:46:42.513Z,-2.30
2018-12-15T15:49:11.252Z,-2.30
2018-12-15T15:51:39.783Z,-2.30
2018-12-15T15:54:08.320Z,-2.40
2018-12-15T15:56:36.189Z,-2.30
2018-12-15T15:59:05.207Z,-2.40
2018-12-15T16:01:33.328Z,-2.40
2018-12-15T16:04:01.772Z,-2.40
2018-12-15T16:24:52.275Z,-2.40
2018-12-15T16:27:20.611Z,-2.40
2018-12-15T16:29:48.485Z,-2.40
2018-12-15T16:32:16.617Z,-2.30
2018-12-15T16:34:44.524Z,-2.40
2018-12-15T16:37:18.931Z,-2.40
2018-12-15T16:39:46.967Z,-2.40
2018-12-15T16:42:16.084Z,-2.40
2018-12-15T16:44:44.315Z,-2.40
2018-12-15T16:47:12.432Z,-2.40
2018-12-15T16:49:41.053Z,-2.40
2018-12-15T16:52:09.098Z,-2.40
2018-12-15T16:54:37.433Z,-2.40
2018-12-15T16:57:05.782Z,-2.40
2018-12-15T16:59:34.046Z,-2.40
2018-12-15T17:02:02.209Z,-2.40
2018-12-15T17:04:30.434Z,-2.40
2018-12-15T17:06:58.668Z,-2.40
2018-12-15T17:09:27.001Z,-2.40
2018-12-15T17:11:55.312Z,-2.40
2018-12-15T17:14:23.540Z,-2.40
2018-12-15T17:16:51.923Z,-2.40
2018-12-15T17:19:20.705Z,-2.40
2018-12-15T17:21:48.736Z,-2.40
2018-12-15T17:24:16.867Z,-2.40
2018-12-15T17:26:44.923Z,-2.40
2018-12-15T17:29:13.372Z,-2.50
2018-12-15T17:31:41.620Z,-2.40
2018-12-15T17:34:09.502Z,-2.40
2018-12-15T17:36:37.561Z,-2.50
2018-12-15T17:39:06.530Z,-2.40
2018-12-15T17:41:34.723Z,-2.50
2018-12-15T17:44:02.779Z,-2.50
2018-12-15T17:46:30.964Z,-2.50
2018-12-15T17:48:59.052Z,-2.40
2018-12-15T17:51:27.236Z,-2.40
2018-12-15T17:53:55.465Z,-2.40
2018-12-15T17:56:23.637Z,-2.40
2018-12-15T17:58:51.547Z,-2.40
2018-12-15T18:01:20.160Z,-2.50
2018-12-15T18:03:48.496Z,-2.40
2018-12-15T18:06:20.484Z,-2.50
2018-12-15T18:08:48.732Z,-2.40
2018-12-15T18:11:17.706Z,-2.40
2018-12-15T18:13:45.786Z,-2.40
2018-12-15T18:16:14.230Z,-2.40
2018-12-15T18:18:42.400Z,-2.40
2018-12-15T18:21:10.898Z,-2.40
2018-12-15T18:23:39.558Z,-2.40
2018-12-15T18:26:07.723Z,-2.50
2018-12-15T18:28:36.203Z,-2.50
2018-12-15T18:31:04.668Z,-2.50
2018-12-15T18:33:37.023Z,-2.50
2018-12-15T18:36:02.809Z,-2.50
2018-12-15T18:38:32.614Z,-2.50
2018-12-15T18:41:04.200Z,-2.50
2018-12-15T18:43:32.112Z,-2.50
2018-12-15T18:46:00.548Z,-2.40
2018-12-15T18:48:32.263Z,-2.40
2018-12-15T18:51:00.873Z,-2.50
2018-12-15T18:53:28.787Z,-2.40
2018-12-15T18:55:56.758Z,-2.40
2018-12-15T18:58:24.886Z,-2.40
2018-12-15T19:00:54.772Z,-2.40
2018-12-15T19:03:23.771Z,-2.50
2018-12-15T19:05:51.784Z,-2.50
2018-12-15T19:08:20.105Z,-2.50
2018-12-15T19:10:48.367Z,-2.50
2018-12-15T19:13:16.728Z,-2.50
2018-12-15T19:15:49.013Z,-2.50
2018-12-15T19:18:17.455Z,-2.50
2018-12-15T19:20:45.490Z,-2.50
2018-12-15T19:23:14.048Z,-2.50
2018-12-15T19:25:42.055Z,-2.50
2018-12-15T19:30:36.132Z,-2.50
2018-12-15T19:33:04.656Z,-2.50
2018-12-15T19:35:32.820Z,-2.50
2018-12-15T19:38:00.925Z,-2.50
2018-12-15T19:40:29.053Z,-2.50
2018-12-15T19:42:57.457Z,-2.50
2018-12-15T19:45:25.807Z,-2.50
2018-12-15T19:47:54.116Z,-2.50
2018-12-15T19:50:22.884Z,-2.60
2018-12-15T19:52:51.236Z,-2.60
2018-12-15T19:55:19.468Z,-2.60
2018-12-15T19:57:47.618Z,-2.60
2018-12-15T20:00:15.930Z,-2.60
2018-12-15T20:02:44.431Z,-2.60
2018-12-15T20:05:14.052Z,-2.60
2018-12-15T20:07:42.563Z,-2.60
2018-12-15T20:10:11.293Z,-2.60
2018-12-15T20:12:39.362Z,-2.60
2018-12-15T20:15:07.865Z,-2.60
2018-12-15T20:17:38.598Z,-2.60
2018-12-15T20:20:08.085Z,-2.60
2018-12-15T20:22:37.401Z,-2.60
2018-12-15T20:25:06.499Z,-2.70
2018-12-15T20:27:34.994Z,-2.70
2018-12-15T20:30:03.371Z,-2.70
2018-12-15T20:32:31.798Z,-2.70
2018-12-15T20:35:00.221Z,-2.70
2018-12-15T20:37:28.272Z,-2.70
2018-12-15T20:39:56.648Z,-2.70
2018-12-15T20:42:24.886Z,-2.70
2018-12-15T20:44:52.944Z,-2.70
2018-12-15T20:47:27.701Z,-2.70
2018-12-15T20:49:51.403Z,-2.70
2018-12-15T20:52:19.611Z,-2.70
2018-12-15T20:54:48.127Z,-2.70
2018-12-15T20:57:16.163Z,-2.70
2018-12-15T20:59:44.385Z,-2.70
2018-12-15T21:02:12.844Z,-2.70
2018-12-15T21:04:40.700Z,-2.70
2018-12-15T21:07:08.421Z,-2.70
2018-12-15T21:09:36.078Z,-2.70
2018-12-15T21:12:04.545Z,-2.70
2018-12-15T21:14:32.626Z,-2.70
2018-12-15T21:17:00.132Z,-2.70
2018-12-15T21:19:27.628Z,-2.70
2018-12-15T21:21:55.187Z,-2.70
2018-12-15T21:24:22.847Z,-2.70
2018-12-15T21:26:50.481Z,-2.80
2018-12-15T21:29:17.964Z,-2.70
2018-12-15T21:31:46.840Z,-2.70
2018-12-15T21:34:14.733Z,-2.70
2018-12-15T21:36:42.850Z,-2.70
2018-12-15T21:39:10.383Z,-2.70
2018-12-15T21:41:38.047Z,-2.70
2018-12-15T21:44:06.155Z,-2.70
2018-12-15T21:46:34.620Z,-2.70
2018-12-15T21:49:02.724Z,-2.70
2018-12-15T21:51:30.238Z,-2.70
2018-12-15T21:53:58.788Z,-2.70
2018-12-15T21:56:26.434Z,-2.70
2018-12-15T21:58:54.095Z,-2.70
2018-12-15T22:01:26.123Z,-2.70
2018-12-15T22:03:53.810Z,-2.70
2018-12-15T22:06:21.321Z,-2.70
2018-12-15T22:08:48.876Z,-2.70
2018-12-15T22:11:16.456Z,-2.70
2018-12-15T22:13:44.305Z,-2.70
2018-12-15T22:16:11.912Z,-2.70
2018-12-15T22:18:41.573Z,-2.70
2018-12-15T22:21:09.080Z,-2.70
2018-12-15T22:23:36.579Z,-2.70
2018-12-15T22:26:04.083Z,-2.70
2018-12-15T22:28:31.578Z,-2.70
2018-12-15T22:30:59.223Z,-2.70
2018-12-15T22:33:26.713Z,-2.70
2018-12-15T22:35:54.705Z,-2.70
2018-12-15T22:38:22.223Z,-2.70
2018-12-15T22:40:50.073Z,-2.70
2018-12-15T22:43:17.764Z,-2.70
2018-12-15T22:45:45.373Z,-2.70
2018-12-15T22:48:12.900Z,-2.70
2018-12-15T22:50:40.473Z,-2.70
2018-12-15T22:53:08.108Z,-2.70
2018-12-15T22:55:35.726Z,-2.70
2018-12-15T22:58:03.427Z,-2.70
2018-12-15T23:00:33.129Z,-2.70
2018-12-15T23:03:00.743Z,-2.70
2018-12-15T23:05:28.415Z,-2.70
2018-12-15T23:07:56.026Z,-2.70
2018-12-15T23:10:23.666Z,-2.70
2018-12-15T23:12:51.162Z,-2.70
2018-12-15T23:15:18.723Z,-2.80
2018-12-15T23:17:46.409Z,-2.80
2018-12-15T23:20:14.013Z,-2.80
2018-12-15T23:22:41.613Z,-2.80
2018-12-15T23:25:10.013Z,-2.80
2018-12-15T23:27:37.629Z,-2.80
2018-12-15T23:30:06.501Z,-2.80
2018-12-15T23:32:34.192Z,-2.80
2018-12-15T23:35:02.520Z,-2.80
2018-12-15T23:37:31.029Z,-2.80
2018-12-15T23:39:58.618Z,-2.80
2018-12-15T23:42:26.290Z,-2.80
2018-12-15T23:44:53.993Z,-2.80
2018-12-15T23:47:21.604Z,-2.80
2018-12-15T23:49:50.224Z,-2.80
2018-12-15T23:52:23.263Z,-2.80
2018-12-15T23:54:47.523Z,-2.80
2018-12-15T23:57:15.257Z,-2.80
2018-12-15T23:59:42.903Z,-2.90
